NCAR-RAP Real-Time Weather Data

Output produced by METARs form (06 May 2021  15:55 UTC)
found at http://weather.rap.ucar.edu/surface/
 
KDUJ 061453Z AUTO 34007KT 10SM SCT036 10/01 A3007 RMK AO2 SLP188 T01000006 50000
KDUJ 061430Z AUTO VRB04KT 10SM FEW025 BKN034 08/01 A3007 RMK AO2 T00830011
KDUJ 061409Z AUTO 26006KT 10SM BKN025 BKN032 09/02 A3008 RMK AO2 T00890022
KDUJ 061353Z AUTO VRB04KT 10SM SCT024 09/03 A3009 RMK AO2 SLP194 T00940028
KDUJ 061308Z AUTO 31003KT 10SM SCT016 07/02 A3009 RMK AO2 T00670022
KDUJ 061253Z AUTO 29004KT 10SM SCT014 BKN020 06/02 A3009 RMK AO2 SLP198 T00560017
KDUJ 061153Z AUTO 31003KT 10SM FEW008 05/02 A3007 RMK AO2 SLP191 70005 T00500022 10056 20028 53009
KDUJ 061144Z AUTO 31006KT 10SM FEW008 05/02 A3007 RMK AO2 T00500022
KDUJ 061053Z AUTO 28005KT 10SM CLR 03/01 A3006 RMK AO2 SLP187 T00330011
KDUJ 061031Z AUTO 28005KT 10SM FEW014 03/01 A3005 RMK AO2 T00280011
KDUJ 060953Z AUTO 31005KT 10SM OVC016 04/01 A3004 RMK AO2 SLP180 T00440011
KDUJ 060853Z AUTO 31004KT 10SM OVC020 04/02 A3004 RMK AO2 SLP178 T00440017 53006
KDUJ 060802Z AUTO 30007KT 10SM FEW022 BKN028 OVC035 05/02 A3003 RMK AO2 T00500017
KDUJ 060753Z AUTO 31007KT 10SM FEW024 BKN030 OVC035 05/02 A3003 RMK AO2 SLP174 T00500017
KDUJ 060653Z AUTO 30006KT 10SM FEW025 OVC036 05/01 A3002 RMK AO2 SLP170 T00500011
KDUJ 060646Z AUTO 31006KT 10SM FEW025 OVC036 05/01 A3002 RMK AO2 T00500011
KDUJ 060631Z AUTO 31004KT 10SM BKN027 OVC034 05/01 A3002 RMK AO2 T00500011
KDUJ 060608Z AUTO 29006KT 10SM OVC030 05/01 A3002 RMK AO2 T00500011
KDUJ 060553Z AUTO 31008KT 10SM OVC028 06/01 A3002 RMK AO2 SLP172 60000 T00560011 10067 20056 50000
KDUJ 060536Z AUTO 30005KT 10SM OVC028 06/01 A3003 RMK AO2 T00560011
KDUJ 060453Z AUTO 29008KT 10SM FEW025 BKN034 OVC041 06/01 A3003 RMK AO2 SLP174 T00560011 401440056
KDUJ 060353Z AUTO 29007KT 260V340 10SM FEW023 OVC042 06/02 A3002 RMK AO2 SLP174 T00560017
KDUJ 060253Z AUTO 31010KT 10SM FEW023 OVC041 06/02 A3002 RMK AO2 SLP172 60000 T00610017 51015
KDUJ 060153Z AUTO 30007KT 10SM FEW024 SCT031 OVC044 07/02 A3001 RMK AO2 SLP169 T00670022
KDUJ 060053Z AUTO 29009KT 10SM OVC045 07/03 A3000 RMK AO2 RAE2358 SLP163 P0000 T00670028